Captain Koulis — SV5456 — position and weather

sailwx.info

Track history (hours):
 
Tides and Currents Weather Stations Pressure Air Temp Water Temp Dewpoint Dewpoint Depression Visibility Wind Speed Wind Dir Waves Ship Positions

Captain Koulis

Last reported at 2015-May-03 14:11 UTC. Time now 2015-May-03 23:56 UTC.
Position N 36°24' E 025°24'.

Length 21 m.

Type: Passenger vessel. MMSI: 239173800.

Date/timePositionNaut miles runAvg speedWind from/ knotsBaromVisibWave heightAir tempDewpointWater temp
2015-May-03 14:11N 36°24' E 025°24'1 1.3
2015-May-03 13:31N 36°24' E 025°25'0 0.3
2015-May-03 12:32N 36°24' E 025°26'1 0.3
2015-May-03 07:16N 36°25' E 025°26'0 0.1
2015-May-03 06:32N 36°25' E 025°26'2 1.7
2015-May-03 05:33N 36°23' E 025°26'2 1.6
2015-May-03 04:26N 36°25' E 025°26'1 0.1
2015-May-02 09:17N 36°24' E 025°24'1 1.4
2015-May-02 08:30N 36°25' E 025°25'1 1.0
2015-May-02 07:33N 36°25' E 025°24'2 1.6
2015-May-02 06:24N 36°23' E 025°26'2 0.1
2015-May-01 13:27N 36°25' E 025°26'0 0.0
2015-May-01 12:32N 36°25' E 025°26'0 0.0
2015-May-01 11:32N 36°25' E 025°26'0 0.0
2015-May-01 10:32N 36°25' E 025°26'0 0.4
2015-May-01 09:33N 36°25' E 025°25'2 2.2
2015-May-01 08:33N 36°27' E 025°23'0 0.1
2015-May-01 06:33N 36°27' E 025°23'3 2.6
2015-May-01 05:31N 36°25' E 025°26'1 0.9
2015-May-01 04:32N 36°24' E 025°25'1 0.1
2015-Apr-30 17:20N 36°25' E 025°24'2 2.2
2015-Apr-30 16:24N 36°23' E 025°26'2 1.8
2015-Apr-30 15:33N 36°25' E 025°25'0 0.4
2015-Apr-30 14:30N 36°25' E 025°26'1 0.8
2015-Apr-30 13:33N 36°24' E 025°25'1 0.6
2015-Apr-30 12:33N 36°24' E 025°25'0 0.0
2015-Apr-29 17:22N 36°24' E 025°24'1 1.0
2015-Apr-29 16:33N 36°25' E 025°25'0 0.0
2015-Apr-29 12:30N 36°25' E 025°25'1 0.2
2015-Apr-29 07:33N 36°25' E 025°24'1 1.2
2015-Apr-29 06:33N 36°25' E 025°25'1 0.5
2015-Apr-29 05:27N 36°25' E 025°26'0 0.5
2015-Apr-29 04:32N 36°25' E 025°25'0 0.0
2015-Apr-28 11:32N 36°25' E 025°26'0 0.1
2015-Apr-28 07:33N 36°25' E 025°25'0 0.2
2015-Apr-28 06:25N 36°25' E 025°25'1 0.7
2015-Apr-28 05:32N 36°25' E 025°26'1 1.3
2015-Apr-28 04:32N 36°24' E 025°24'1 0.1
2015-Apr-27 11:33N 36°25' E 025°25'2 1.9
2015-Apr-27 10:24N 36°26' E 025°24'6416.4
2015-Apr-27 06:31N 37°26' E 024°56'0 0.0
2015-Apr-26 08:11N 37°26' E 024°56'0 0.0
2015-Apr-25 11:33N 37°26' E 024°56'0 0.0
2015-Apr-25 07:16N 37°26' E 024°56'0 0.0
2015-Apr-25 06:33N 37°26' E 024°56'0 0.0
2015-Apr-24 05:29N 37°26' E 024°56'1718.6
2015-Apr-24 04:33N 37°09' E 024°58'4019.3
2015-Apr-24 02:29N 36°32' E 025°19'9 9.6
2015-Apr-24 01:32N 36°24' E 025°24'0 0.0
2015-Apr-23 17:30N 36°24' E 025°24'  
Track history (hours):
 
Tides and Currents Weather Stations Pressure Air Temp Water Temp Dewpoint Dewpoint Depression Visibility Wind Speed Wind Dir Waves Ship Positions

Captain Koulis

Last reported at 2015-May-03 14:11 UTC. Time now 2015-May-03 23:56 UTC.
Position N 36°24' E 025°24'.

Length 21 m.

Type: Passenger vessel. MMSI: 239173800.

Date/timePositionNaut miles runAvg speedWind from/ knotsBaromVisibWave heightAir tempDewpointWater temp
2015-May-03 14:11N 36°24' E 025°24'1 1.3
2015-May-03 13:31N 36°24' E 025°25'0 0.3
2015-May-03 12:32N 36°24' E 025°26'1 0.3
2015-May-03 07:16N 36°25' E 025°26'0 0.1
2015-May-03 06:32N 36°25' E 025°26'2 1.7
2015-May-03 05:33N 36°23' E 025°26'2 1.6
2015-May-03 04:26N 36°25' E 025°26'1 0.1
2015-May-02 09:17N 36°24' E 025°24'1 1.4
2015-May-02 08:30N 36°25' E 025°25'1 1.0
2015-May-02 07:33N 36°25' E 025°24'2 1.6
2015-May-02 06:24N 36°23' E 025°26'2 0.1
2015-May-01 13:27N 36°25' E 025°26'0 0.0
2015-May-01 12:32N 36°25' E 025°26'0 0.0
2015-May-01 11:32N 36°25' E 025°26'0 0.0
2015-May-01 10:32N 36°25' E 025°26'0 0.4
2015-May-01 09:33N 36°25' E 025°25'2 2.2
2015-May-01 08:33N 36°27' E 025°23'0 0.1
2015-May-01 06:33N 36°27' E 025°23'3 2.6
2015-May-01 05:31N 36°25' E 025°26'1 0.9
2015-May-01 04:32N 36°24' E 025°25'1 0.1
2015-Apr-30 17:20N 36°25' E 025°24'2 2.2
2015-Apr-30 16:24N 36°23' E 025°26'2 1.8
2015-Apr-30 15:33N 36°25' E 025°25'0 0.4
2015-Apr-30 14:30N 36°25' E 025°26'1 0.8
2015-Apr-30 13:33N 36°24' E 025°25'1 0.6
2015-Apr-30 12:33N 36°24' E 025°25'0 0.0
2015-Apr-29 17:22N 36°24' E 025°24'1 1.0
2015-Apr-29 16:33N 36°25' E 025°25'0 0.0
2015-Apr-29 12:30N 36°25' E 025°25'1 0.2
2015-Apr-29 07:33N 36°25' E 025°24'1 1.2
2015-Apr-29 06:33N 36°25' E 025°25'1 0.5
2015-Apr-29 05:27N 36°25' E 025°26'0 0.5
2015-Apr-29 04:32N 36°25' E 025°25'0 0.0
2015-Apr-28 11:32N 36°25' E 025°26'0 0.1
2015-Apr-28 07:33N 36°25' E 025°25'0 0.2
2015-Apr-28 06:25N 36°25' E 025°25'1 0.7
2015-Apr-28 05:32N 36°25' E 025°26'1 1.3
2015-Apr-28 04:32N 36°24' E 025°24'1 0.1
2015-Apr-27 11:33N 36°25' E 025°25'2 1.9
2015-Apr-27 10:24N 36°26' E 025°24'6416.4
2015-Apr-27 06:31N 37°26' E 024°56'0 0.0
2015-Apr-26 08:11N 37°26' E 024°56'0 0.0
2015-Apr-25 11:33N 37°26' E 024°56'0 0.0
2015-Apr-25 07:16N 37°26' E 024°56'0 0.0
2015-Apr-25 06:33N 37°26' E 024°56'0 0.0
2015-Apr-24 05:29N 37°26' E 024°56'1718.6
2015-Apr-24 04:33N 37°09' E 024°58'4019.3
2015-Apr-24 02:29N 36°32' E 025°19'9 9.6
2015-Apr-24 01:32N 36°24' E 025°24'0 0.0
2015-Apr-23 17:30N 36°24' E 025°24'  

Dump ship's entire track history